sensor_id;sensor_type;location;lat;lon;timestamp;temperature;humidity
44111;DHT22;29774;52.664;5.074;2024-01-06T00:02:24;8.30;80.00
44111;DHT22;29774;52.664;5.074;2024-01-06T00:04:50;7.80;77.10
44111;DHT22;29774;52.664;5.074;2024-01-06T00:07:15;7.30;77.60
44111;DHT22;29774;52.664;5.074;2024-01-06T00:09:41;7.50;79.90
44111;DHT22;29774;52.664;5.074;2024-01-06T00:12:06;7.10;78.10
44111;DHT22;29774;52.664;5.074;2024-01-06T00:14:32;7.00;79.30
44111;DHT22;29774;52.664;5.074;2024-01-06T00:16:58;7.10;80.10
44111;DHT22;29774;52.664;5.074;2024-01-06T00:19:23;7.70;80.70
44111;DHT22;29774;52.664;5.074;2024-01-06T00:21:49;7.90;81.40
44111;DHT22;29774;52.664;5.074;2024-01-06T00:24:14;8.40;81.70
44111;DHT22;29774;52.664;5.074;2024-01-06T00:26:40;8.30;79.00
44111;DHT22;29774;52.664;5.074;2024-01-06T00:29:06;7.50;77.60
44111;DHT22;29774;52.664;5.074;2024-01-06T00:31:31;7.20;78.20
44111;DHT22;29774;52.664;5.074;2024-01-06T00:33:57;7.20;79.50
44111;DHT22;29774;52.664;5.074;2024-01-06T00:36:22;7.20;79.70
44111;DHT22;29774;52.664;5.074;2024-01-06T00:38:48;7.50;80.20
44111;DHT22;29774;52.664;5.074;2024-01-06T00:41:14;7.80;80.80
44111;DHT22;29774;52.664;5.074;2024-01-06T00:43:40;7.90;79.60
44111;DHT22;29774;52.664;5.074;2024-01-06T00:46:06;8.00;80.00
44111;DHT22;29774;52.664;5.074;2024-01-06T00:48:31;7.70;78.90
44111;DHT22;29774;52.664;5.074;2024-01-06T00:50:57;7.30;78.10
44111;DHT22;29774;52.664;5.074;2024-01-06T00:53:22;7.10;78.80
44111;DHT22;29774;52.664;5.074;2024-01-06T00:55:48;7.00;79.50
44111;DHT22;29774;52.664;5.074;2024-01-06T00:58:14;7.00;79.70
44111;DHT22;29774;52.664;5.074;2024-01-06T01:00:39;6.60;79.50
44111;DHT22;29774;52.664;5.074;2024-01-06T01:03:05;6.60;80.40
44111;DHT22;29774;52.664;5.074;2024-01-06T01:05:31;6.90;81.10
44111;DHT22;29774;52.664;5.074;2024-01-06T01:07:56;7.00;81.00
44111;DHT22;29774;52.664;5.074;2024-01-06T01:10:22;7.10;81.00
44111;DHT22;29774;52.664;5.074;2024-01-06T01:12:47;6.80;79.70
44111;DHT22;29774;52.664;5.074;2024-01-06T01:15:13;7.00;80.50
44111;DHT22;29774;52.664;5.074;2024-01-06T01:17:38;7.20;80.80
44111;DHT22;29774;52.664;5.074;2024-01-06T01:20:05;6.90;79.30
44111;DHT22;29774;52.664;5.074;2024-01-06T01:22:30;6.80;80.50
44111;DHT22;29774;52.664;5.074;2024-01-06T01:24:56;6.90;80.40
44111;DHT22;29774;52.664;5.074;2024-01-06T01:27:22;6.80;80.10
44111;DHT22;29774;52.664;5.074;2024-01-06T01:29:48;6.70;80.10
44111;DHT22;29774;52.664;5.074;2024-01-06T01:32:18;6.90;81.20
44111;DHT22;29774;52.664;5.074;2024-01-06T01:34:43;7.10;81.60
44111;DHT22;29774;52.664;5.074;2024-01-06T01:37:09;7.10;80.80
44111;DHT22;29774;52.664;5.074;2024-01-06T01:39:35;6.70;79.80
44111;DHT22;29774;52.664;5.074;2024-01-06T01:42:00;6.90;81.00
44111;DHT22;29774;52.664;5.074;2024-01-06T01:44:26;7.30;81.20
44111;DHT22;29774;52.664;5.074;2024-01-06T01:46:51;7.10;79.30
44111;DHT22;29774;52.664;5.074;2024-01-06T01:49:17;7.00;80.50
44111;DHT22;29774;52.664;5.074;2024-01-06T01:51:43;6.60;79.70
44111;DHT22;29774;52.664;5.074;2024-01-06T01:54:09;6.60;80.30
44111;DHT22;29774;52.664;5.074;2024-01-06T01:56:36;6.60;80.50
44111;DHT22;29774;52.664;5.074;2024-01-06T01:59:12;6.60;80.80
44111;DHT22;29774;52.664;5.074;2024-01-06T02:01:41;6.70;81.10
44111;DHT22;29774;52.664;5.074;2024-01-06T02:04:08;6.50;80.30
44111;DHT22;29774;52.664;5.074;2024-01-06T02:06:34;6.40;80.80
44111;DHT22;29774;52.664;5.074;2024-01-06T02:09:00;6.30;81.00
44111;DHT22;29774;52.664;5.074;2024-01-06T02:11:26;6.40;81.10
44111;DHT22;29774;52.664;5.074;2024-01-06T02:13:52;6.60;80.70
44111;DHT22;29774;52.664;5.074;2024-01-06T02:16:17;6.50;81.10
44111;DHT22;29774;52.664;5.074;2024-01-06T02:18:43;6.60;80.60
44111;DHT22;29774;52.664;5.074;2024-01-06T02:21:09;6.60;80.90
44111;DHT22;29774;52.664;5.074;2024-01-06T02:23:36;6.50;80.90
44111;DHT22;29774;52.664;5.074;2024-01-06T02:26:02;6.40;80.90
44111;DHT22;29774;52.664;5.074;2024-01-06T02:28:28;6.40;81.20
44111;DHT22;29774;52.664;5.074;2024-01-06T02:30:54;7.10;82.50
44111;DHT22;29774;52.664;5.074;2024-01-06T02:33:19;7.40;83.00
44111;DHT22;29774;52.664;5.074;2024-01-06T02:35:46;8.10;82.30
44111;DHT22;29774;52.664;5.074;2024-01-06T02:38:12;7.80;80.40
44111;DHT22;29774;52.664;5.074;2024-01-06T02:40:37;7.20;78.00
44111;DHT22;29774;52.664;5.074;2024-01-06T02:43:03;7.10;79.00
44111;DHT22;29774;52.664;5.074;2024-01-06T02:45:29;6.90;79.10
44111;DHT22;29774;52.664;5.074;2024-01-06T02:47:55;6.80;79.10
44111;DHT22;29774;52.664;5.074;2024-01-06T02:50:20;6.70;79.40
44111;DHT22;29774;52.664;5.074;2024-01-06T02:52:46;6.60;79.10
44111;DHT22;29774;52.664;5.074;2024-01-06T02:55:12;6.50;79.60
44111;DHT22;29774;52.664;5.074;2024-01-06T02:57:38;7.20;81.40
44111;DHT22;29774;52.664;5.074;2024-01-06T03:00:04;7.10;79.90
44111;DHT22;29774;52.664;5.074;2024-01-06T03:02:30;6.50;78.20
44111;DHT22;29774;52.664;5.074;2024-01-06T03:04:56;6.20;79.60
44111;DHT22;29774;52.664;5.074;2024-01-06T03:07:22;6.30;80.10
44111;DHT22;29774;52.664;5.074;2024-01-06T03:09:47;6.80;81.60
44111;DHT22;29774;52.664;5.074;2024-01-06T03:12:13;6.70;80.40
44111;DHT22;29774;52.664;5.074;2024-01-06T03:14:38;6.40;79.40
44111;DHT22;29774;52.664;5.074;2024-01-06T03:17:04;6.50;80.00
44111;DHT22;29774;52.664;5.074;2024-01-06T03:19:33;6.30;80.00
44111;DHT22;29774;52.664;5.074;2024-01-06T03:21:58;6.70;80.70
44111;DHT22;29774;52.664;5.074;2024-01-06T03:24:26;6.70;80.50
44111;DHT22;29774;52.664;5.074;2024-01-06T03:26:52;6.70;80.20
44111;DHT22;29774;52.664;5.074;2024-01-06T03:29:17;7.00;81.10
44111;DHT22;29774;52.664;5.074;2024-01-06T03:31:46;7.30;81.30
44111;DHT22;29774;52.664;5.074;2024-01-06T03:34:12;7.10;79.50
44111;DHT22;29774;52.664;5.074;2024-01-06T03:36:38;6.80;79.00
44111;DHT22;29774;52.664;5.074;2024-01-06T03:39:04;6.60;79.80
44111;DHT22;29774;52.664;5.074;2024-01-06T03:41:30;6.60;80.70
44111;DHT22;29774;52.664;5.074;2024-01-06T03:43:55;6.80;80.60
44111;DHT22;29774;52.664;5.074;2024-01-06T03:46:22;6.70;80.70
44111;DHT22;29774;52.664;5.074;2024-01-06T03:48:47;6.70;79.90
44111;DHT22;29774;52.664;5.074;2024-01-06T03:51:13;6.40;79.90
44111;DHT22;29774;52.664;5.074;2024-01-06T03:53:39;7.00;81.60
44111;DHT22;29774;52.664;5.074;2024-01-06T03:56:06;6.90;80.70
44111;DHT22;29774;52.664;5.074;2024-01-06T03:58:32;6.90;80.50
44111;DHT22;29774;52.664;5.074;2024-01-06T04:00:57;7.20;82.20
44111;DHT22;29774;52.664;5.074;2024-01-06T04:03:23;7.40;81.60
44111;DHT22;29774;52.664;5.074;2024-01-06T04:05:49;7.30;79.20
44111;DHT22;29774;52.664;5.074;2024-01-06T04:08:14;7.00;78.30
44111;DHT22;29774;52.664;5.074;2024-01-06T04:10:40;7.20;80.70
44111;DHT22;29774;52.664;5.074;2024-01-06T04:13:07;7.20;80.50
44111;DHT22;29774;52.664;5.074;2024-01-06T04:15:33;6.90;78.40
44111;DHT22;29774;52.664;5.074;2024-01-06T04:18:02;7.10;79.80
44111;DHT22;29774;52.664;5.074;2024-01-06T04:20:29;6.80;79.10
44111;DHT22;29774;52.664;5.074;2024-01-06T04:22:54;7.30;82.10
44111;DHT22;29774;52.664;5.074;2024-01-06T04:25:20;7.30;78.50
44111;DHT22;29774;52.664;5.074;2024-01-06T04:27:46;7.20;79.70
44111;DHT22;29774;52.664;5.074;2024-01-06T04:30:14;7.00;78.80
44111;DHT22;29774;52.664;5.074;2024-01-06T04:32:40;7.10;79.10
44111;DHT22;29774;52.664;5.074;2024-01-06T04:35:06;6.70;78.00
44111;DHT22;29774;52.664;5.074;2024-01-06T04:37:31;6.30;79.10
44111;DHT22;29774;52.664;5.074;2024-01-06T04:39:57;6.50;80.30
44111;DHT22;29774;52.664;5.074;2024-01-06T04:42:23;6.50;80.10
44111;DHT22;29774;52.664;5.074;2024-01-06T04:44:49;6.70;80.10
44111;DHT22;29774;52.664;5.074;2024-01-06T04:47:15;6.20;79.60
44111;DHT22;29774;52.664;5.074;2024-01-06T04:49:41;6.40;80.60
44111;DHT22;29774;52.664;5.074;2024-01-06T04:52:07;6.80;82.80
44111;DHT22;29774;52.664;5.074;2024-01-06T04:54:32;7.60;82.40
44111;DHT22;29774;52.664;5.074;2024-01-06T04:56:58;7.10;79.50
44111;DHT22;29774;52.664;5.074;2024-01-06T04:59:24;6.80;79.50
44111;DHT22;29774;52.664;5.074;2024-01-06T05:01:51;6.70;78.80
44111;DHT22;29774;52.664;5.074;2024-01-06T05:04:18;6.30;79.40
44111;DHT22;29774;52.664;5.074;2024-01-06T05:06:43;6.30;79.80
44111;DHT22;29774;52.664;5.074;2024-01-06T05:09:09;6.60;81.10
44111;DHT22;29774;52.664;5.074;2024-01-06T05:11:35;6.30;80.00
44111;DHT22;29774;52.664;5.074;2024-01-06T05:14:00;6.70;81.10
44111;DHT22;29774;52.664;5.074;2024-01-06T05:16:26;6.70;80.30
44111;DHT22;29774;52.664;5.074;2024-01-06T05:18:53;7.20;81.60
44111;DHT22;29774;52.664;5.074;2024-01-06T05:21:19;7.00;79.20
44111;DHT22;29774;52.664;5.074;2024-01-06T05:23:44;6.90;79.60
44111;DHT22;29774;52.664;5.074;2024-01-06T05:26:10;6.70;78.30
44111;DHT22;29774;52.664;5.074;2024-01-06T05:28:37;6.60;78.90
44111;DHT22;29774;52.664;5.074;2024-01-06T05:31:02;6.50;79.40
44111;DHT22;29774;52.664;5.074;2024-01-06T05:33:28;6.60;79.60
44111;DHT22;29774;52.664;5.074;2024-01-06T05:35:53;6.50;79.60
44111;DHT22;29774;52.664;5.074;2024-01-06T05:38:19;6.20;79.40
44111;DHT22;29774;52.664;5.074;2024-01-06T05:40:45;6.00;79.70
44111;DHT22;29774;52.664;5.074;2024-01-06T05:43:10;5.90;80.20
44111;DHT22;29774;52.664;5.074;2024-01-06T05:45:36;5.80;80.60
44111;DHT22;29774;52.664;5.074;2024-01-06T05:48:04;5.80;80.80
44111;DHT22;29774;52.664;5.074;2024-01-06T05:50:30;5.90;81.20
44111;DHT22;29774;52.664;5.074;2024-01-06T05:52:55;6.40;82.00
44111;DHT22;29774;52.664;5.074;2024-01-06T05:55:21;6.70;81.60
44111;DHT22;29774;52.664;5.074;2024-01-06T05:57:47;6.70;80.90
44111;DHT22;29774;52.664;5.074;2024-01-06T06:00:13;6.60;80.30
44111;DHT22;29774;52.664;5.074;2024-01-06T06:02:39;6.50;80.40
44111;DHT22;29774;52.664;5.074;2024-01-06T06:05:05;6.40;79.90
44111;DHT22;29774;52.664;5.074;2024-01-06T06:07:30;6.40;80.30
44111;DHT22;29774;52.664;5.074;2024-01-06T06:09:56;6.40;80.30
44111;DHT22;29774;52.664;5.074;2024-01-06T06:12:22;6.50;81.00
44111;DHT22;29774;52.664;5.074;2024-01-06T06:14:48;6.00;80.30
44111;DHT22;29774;52.664;5.074;2024-01-06T06:17:13;5.90;81.10
44111;DHT22;29774;52.664;5.074;2024-01-06T06:19:39;6.10;81.40
44111;DHT22;29774;52.664;5.074;2024-01-06T06:22:04;5.70;81.50
44111;DHT22;29774;52.664;5.074;2024-01-06T06:24:30;5.70;82.20
44111;DHT22;29774;52.664;5.074;2024-01-06T06:26:56;5.70;82.20
44111;DHT22;29774;52.664;5.074;2024-01-06T06:29:22;5.70;82.10
44111;DHT22;29774;52.664;5.074;2024-01-06T06:31:47;5.50;82.50
44111;DHT22;29774;52.664;5.074;2024-01-06T06:34:14;5.50;82.90
44111;DHT22;29774;52.664;5.074;2024-01-06T06:36:39;5.40;83.00
44111;DHT22;29774;52.664;5.074;2024-01-06T06:39:05;5.70;82.90
44111;DHT22;29774;52.664;5.074;2024-01-06T06:41:30;5.40;83.10
44111;DHT22;29774;52.664;5.074;2024-01-06T06:43:57;5.70;83.40
44111;DHT22;29774;52.664;5.074;2024-01-06T06:46:23;5.70;83.20
44111;DHT22;29774;52.664;5.074;2024-01-06T06:48:49;5.70;83.00
44111;DHT22;29774;52.664;5.074;2024-01-06T06:51:15;5.90;83.10
44111;DHT22;29774;52.664;5.074;2024-01-06T06:53:41;5.80;83.00
44111;DHT22;29774;52.664;5.074;2024-01-06T06:56:07;5.90;83.10
44111;DHT22;29774;52.664;5.074;2024-01-06T06:58:32;5.90;82.90
44111;DHT22;29774;52.664;5.074;2024-01-06T07:00:58;5.80;82.90
44111;DHT22;29774;52.664;5.074;2024-01-06T07:03:24;5.90;83.10
44111;DHT22;29774;52.664;5.074;2024-01-06T07:05:49;6.10;83.20
44111;DHT22;29774;52.664;5.074;2024-01-06T07:08:15;6.00;82.60
44111;DHT22;29774;52.664;5.074;2024-01-06T07:10:41;5.70;82.40
44111;DHT22;29774;52.664;5.074;2024-01-06T07:13:07;5.70;82.70
44111;DHT22;29774;52.664;5.074;2024-01-06T07:15:32;5.50;83.10
44111;DHT22;29774;52.664;5.074;2024-01-06T07:17:58;5.50;83.50
44111;DHT22;29774;52.664;5.074;2024-01-06T07:20:23;5.40;83.60
44111;DHT22;29774;52.664;5.074;2024-01-06T07:22:49;5.60;83.80
44111;DHT22;29774;52.664;5.074;2024-01-06T07:25:15;5.40;83.80
44111;DHT22;29774;52.664;5.074;2024-01-06T07:27:40;5.40;83.90
44111;DHT22;29774;52.664;5.074;2024-01-06T07:30:06;5.20;84.10
44111;DHT22;29774;52.664;5.074;2024-01-06T07:32:34;5.40;84.30
44111;DHT22;29774;52.664;5.074;2024-01-06T07:35:00;5.60;84.20
44111;DHT22;29774;52.664;5.074;2024-01-06T07:37:25;5.90;84.20
44111;DHT22;29774;52.664;5.074;2024-01-06T07:39:51;5.80;83.60
44111;DHT22;29774;52.664;5.074;2024-01-06T07:42:18;5.90;83.90
44111;DHT22;29774;52.664;5.074;2024-01-06T07:44:43;6.20;83.70
44111;DHT22;29774;52.664;5.074;2024-01-06T07:47:10;6.20;83.50
44111;DHT22;29774;52.664;5.074;2024-01-06T07:49:36;6.20;83.20
44111;DHT22;29774;52.664;5.074;2024-01-06T07:52:01;6.40;83.20
44111;DHT22;29774;52.664;5.074;2024-01-06T07:54:27;6.00;81.80
44111;DHT22;29774;52.664;5.074;2024-01-06T07:56:53;6.00;82.40
44111;DHT22;29774;52.664;5.074;2024-01-06T07:59:19;6.00;82.40
44111;DHT22;29774;52.664;5.074;2024-01-06T08:01:44;6.00;82.50
44111;DHT22;29774;52.664;5.074;2024-01-06T08:04:10;5.90;82.60
44111;DHT22;29774;52.664;5.074;2024-01-06T08:06:36;5.60;82.70
44111;DHT22;29774;52.664;5.074;2024-01-06T08:09:01;5.50;83.20
44111;DHT22;29774;52.664;5.074;2024-01-06T08:11:28;5.50;83.40
44111;DHT22;29774;52.664;5.074;2024-01-06T08:13:54;5.50;83.50
44111;DHT22;29774;52.664;5.074;2024-01-06T08:16:20;5.60;83.60
44111;DHT22;29774;52.664;5.074;2024-01-06T08:18:46;5.50;83.50
44111;DHT22;29774;52.664;5.074;2024-01-06T08:21:12;5.20;83.80
44111;DHT22;29774;52.664;5.074;2024-01-06T08:23:37;5.00;84.30
44111;DHT22;29774;52.664;5.074;2024-01-06T08:26:04;5.20;84.60
44111;DHT22;29774;52.664;5.074;2024-01-06T08:28:30;5.40;84.40
44111;DHT22;29774;52.664;5.074;2024-01-06T08:30:55;6.30;86.10
44111;DHT22;29774;52.664;5.074;2024-01-06T08:33:21;6.30;84.40
44111;DHT22;29774;52.664;5.074;2024-01-06T08:35:47;6.30;83.50
44111;DHT22;29774;52.664;5.074;2024-01-06T08:38:13;6.30;82.70
44111;DHT22;29774;52.664;5.074;2024-01-06T08:40:39;6.30;82.20
44111;DHT22;29774;52.664;5.074;2024-01-06T08:43:05;6.30;81.90
44111;DHT22;29774;52.664;5.074;2024-01-06T08:45:31;6.30;81.20
44111;DHT22;29774;52.664;5.074;2024-01-06T08:47:56;6.30;82.00
44111;DHT22;29774;52.664;5.074;2024-01-06T08:50:22;6.40;81.90
44111;DHT22;29774;52.664;5.074;2024-01-06T08:52:48;6.10;81.40
44111;DHT22;29774;52.664;5.074;2024-01-06T08:55:13;5.80;81.10
44111;DHT22;29774;52.664;5.074;2024-01-06T08:57:39;5.60;81.80
44111;DHT22;29774;52.664;5.074;2024-01-06T09:00:05;5.70;82.30
44111;DHT22;29774;52.664;5.074;2024-01-06T09:02:31;6.00;82.50
44111;DHT22;29774;52.664;5.074;2024-01-06T09:04:57;6.00;82.00
44111;DHT22;29774;52.664;5.074;2024-01-06T09:07:22;6.10;82.10
44111;DHT22;29774;52.664;5.074;2024-01-06T09:09:48;6.50;82.60
44111;DHT22;29774;52.664;5.074;2024-01-06T09:12:13;6.40;82.20
44111;DHT22;29774;52.664;5.074;2024-01-06T09:14:39;6.20;81.30
44111;DHT22;29774;52.664;5.074;2024-01-06T09:17:05;6.20;81.50
44111;DHT22;29774;52.664;5.074;2024-01-06T09:19:31;6.00;80.90
44111;DHT22;29774;52.664;5.074;2024-01-06T09:21:57;5.80;81.80
44111;DHT22;29774;52.664;5.074;2024-01-06T09:24:22;5.70;81.90
44111;DHT22;29774;52.664;5.074;2024-01-06T09:26:48;6.00;82.50
44111;DHT22;29774;52.664;5.074;2024-01-06T09:29:15;5.80;82.00
44111;DHT22;29774;52.664;5.074;2024-01-06T09:31:42;5.80;82.40
44111;DHT22;29774;52.664;5.074;2024-01-06T09:34:09;6.00;83.00
44111;DHT22;29774;52.664;5.074;2024-01-06T09:36:35;6.20;81.70
44111;DHT22;29774;52.664;5.074;2024-01-06T09:39:01;6.00;82.00
44111;DHT22;29774;52.664;5.074;2024-01-06T09:41:27;6.20;82.60
44111;DHT22;29774;52.664;5.074;2024-01-06T09:43:52;6.30;82.50
44111;DHT22;29774;52.664;5.074;2024-01-06T09:46:24;6.40;82.40
44111;DHT22;29774;52.664;5.074;2024-01-06T09:48:54;6.20;81.30
44111;DHT22;29774;52.664;5.074;2024-01-06T09:51:20;6.00;81.30
44111;DHT22;29774;52.664;5.074;2024-01-06T09:54:07;5.80;82.10
44111;DHT22;29774;52.664;5.074;2024-01-06T09:56:34;5.80;82.30
44111;DHT22;29774;52.664;5.074;2024-01-06T09:59:01;5.70;82.30
44111;DHT22;29774;52.664;5.074;2024-01-06T10:01:27;6.00;82.90
44111;DHT22;29774;52.664;5.074;2024-01-06T10:03:53;6.30;83.10
44111;DHT22;29774;52.664;5.074;2024-01-06T10:06:19;6.50;82.20
44111;DHT22;29774;52.664;5.074;2024-01-06T10:08:52;6.30;81.80
44111;DHT22;29774;52.664;5.074;2024-01-06T10:11:18;6.20;81.00
44111;DHT22;29774;52.664;5.074;2024-01-06T10:13:44;6.30;81.20
44111;DHT22;29774;52.664;5.074;2024-01-06T10:16:10;6.20;81.10
44111;DHT22;29774;52.664;5.074;2024-01-06T10:18:35;6.20;81.20
44111;DHT22;29774;52.664;5.074;2024-01-06T10:21:05;6.10;80.70
44111;DHT22;29774;52.664;5.074;2024-01-06T10:23:32;5.90;80.80
44111;DHT22;29774;52.664;5.074;2024-01-06T10:25:58;6.20;81.70
44111;DHT22;29774;52.664;5.074;2024-01-06T10:28:24;6.80;82.60
44111;DHT22;29774;52.664;5.074;2024-01-06T10:30:53;6.80;81.60
44111;DHT22;29774;52.664;5.074;2024-01-06T10:33:23;7.00;81.60
44111;DHT22;29774;52.664;5.074;2024-01-06T10:35:49;7.00;81.00
44111;DHT22;29774;52.664;5.074;2024-01-06T10:38:15;7.30;81.30
44111;DHT22;29774;52.664;5.074;2024-01-06T10:40:57;6.90;77.90
44111;DHT22;29774;52.664;5.074;2024-01-06T10:43:27;6.30;78.50
44111;DHT22;29774;52.664;5.074;2024-01-06T10:45:56;6.20;79.90
44111;DHT22;29774;52.664;5.074;2024-01-06T10:48:25;6.20;80.00
44111;DHT22;29774;52.664;5.074;2024-01-06T10:50:52;6.20;80.10
44111;DHT22;29774;52.664;5.074;2024-01-06T10:53:20;6.20;79.70
44111;DHT22;29774;52.664;5.074;2024-01-06T10:55:46;6.00;80.00
44111;DHT22;29774;52.664;5.074;2024-01-06T10:58:14;5.90;79.90
44111;DHT22;29774;52.664;5.074;2024-01-06T11:00:42;5.90;80.20
44111;DHT22;29774;52.664;5.074;2024-01-06T11:03:09;5.90;80.60
44111;DHT22;29774;52.664;5.074;2024-01-06T11:05:37;6.50;82.10
44111;DHT22;29774;52.664;5.074;2024-01-06T11:08:04;6.50;80.00
44111;DHT22;29774;52.664;5.074;2024-01-06T11:10:31;6.10;79.00
44111;DHT22;29774;52.664;5.074;2024-01-06T11:13:11;5.90;79.80
44111;DHT22;29774;52.664;5.074;2024-01-06T11:15:41;6.00;80.20
44111;DHT22;29774;52.664;5.074;2024-01-06T11:18:06;6.00;79.80
44111;DHT22;29774;52.664;5.074;2024-01-06T11:20:32;6.00;79.90
44111;DHT22;29774;52.664;5.074;2024-01-06T11:23:19;6.30;80.70
44111;DHT22;29774;52.664;5.074;2024-01-06T11:25:47;6.70;81.50
44111;DHT22;29774;52.664;5.074;2024-01-06T11:28:13;6.70;80.70
44111;DHT22;29774;52.664;5.074;2024-01-06T11:30:41;6.70;80.30
44111;DHT22;29774;52.664;5.074;2024-01-06T11:33:08;6.60;79.70
44111;DHT22;29774;52.664;5.074;2024-01-06T11:35:37;6.80;81.00
44111;DHT22;29774;52.664;5.074;2024-01-06T11:38:06;6.90;79.90
44111;DHT22;29774;52.664;5.074;2024-01-06T11:40:34;6.80;78.40
44111;DHT22;29774;52.664;5.074;2024-01-06T11:43:11;7.10;79.30
44111;DHT22;29774;52.664;5.074;2024-01-06T11:45:41;6.50;77.40
44111;DHT22;29774;52.664;5.074;2024-01-06T11:48:09;5.90;78.80
44111;DHT22;29774;52.664;5.074;2024-01-06T11:50:37;6.40;80.60
44111;DHT22;29774;52.664;5.074;2024-01-06T11:53:04;6.70;80.30
44111;DHT22;29774;52.664;5.074;2024-01-06T11:55:30;6.60;79.20
44111;DHT22;29774;52.664;5.074;2024-01-06T11:58:00;6.80;80.00
44111;DHT22;29774;52.664;5.074;2024-01-06T12:00:30;6.80;78.60
44111;DHT22;29774;52.664;5.074;2024-01-06T12:02:56;7.00;79.10
44111;DHT22;29774;52.664;5.074;2024-01-06T12:05:24;6.90;77.90
44111;DHT22;29774;52.664;5.074;2024-01-06T12:07:58;6.50;77.30
44111;DHT22;29774;52.664;5.074;2024-01-06T12:10:28;7.00;80.40
44111;DHT22;29774;52.664;5.074;2024-01-06T12:13:02;7.10;77.60
44111;DHT22;29774;52.664;5.074;2024-01-06T12:15:31;6.90;77.30
44111;DHT22;29774;52.664;5.074;2024-01-06T12:17:57;6.70;76.00
44111;DHT22;29774;52.664;5.074;2024-01-06T12:20:26;6.60;76.70
44111;DHT22;29774;52.664;5.074;2024-01-06T12:22:54;6.90;77.00
44111;DHT22;29774;52.664;5.074;2024-01-06T12:25:21;7.10;78.20
44111;DHT22;29774;52.664;5.074;2024-01-06T12:27:48;7.30;78.30
44111;DHT22;29774;52.664;5.074;2024-01-06T12:30:16;7.30;76.80
44111;DHT22;29774;52.664;5.074;2024-01-06T12:32:46;7.30;76.80
44111;DHT22;29774;52.664;5.074;2024-01-06T12:35:13;7.50;76.80
44111;DHT22;29774;52.664;5.074;2024-01-06T12:37:42;7.60;78.00
44111;DHT22;29774;52.664;5.074;2024-01-06T12:40:09;7.60;76.00
44111;DHT22;29774;52.664;5.074;2024-01-06T12:42:36;8.00;77.80
44111;DHT22;29774;52.664;5.074;2024-01-06T12:45:03;8.20;76.30
44111;DHT22;29774;52.664;5.074;2024-01-06T12:47:29;8.00;75.80
44111;DHT22;29774;52.664;5.074;2024-01-06T12:49:55;7.70;73.70
44111;DHT22;29774;52.664;5.074;2024-01-06T12:52:20;7.60;74.90
44111;DHT22;29774;52.664;5.074;2024-01-06T12:54:46;8.10;76.50
44111;DHT22;29774;52.664;5.074;2024-01-06T12:57:12;7.60;73.90
44111;DHT22;29774;52.664;5.074;2024-01-06T12:59:37;7.30;73.90
44111;DHT22;29774;52.664;5.074;2024-01-06T13:02:04;7.30;75.30
44111;DHT22;29774;52.664;5.074;2024-01-06T13:04:30;7.50;76.10
44111;DHT22;29774;52.664;5.074;2024-01-06T13:06:57;7.70;77.30
44111;DHT22;29774;52.664;5.074;2024-01-06T13:09:25;7.80;74.80
44111;DHT22;29774;52.664;5.074;2024-01-06T13:11:51;7.30;73.20
44111;DHT22;29774;52.664;5.074;2024-01-06T13:14:18;6.80;74.20
44111;DHT22;29774;52.664;5.074;2024-01-06T13:16:44;7.20;76.00
44111;DHT22;29774;52.664;5.074;2024-01-06T13:19:09;6.90;75.30
44111;DHT22;29774;52.664;5.074;2024-01-06T13:21:35;6.40;74.80
44111;DHT22;29774;52.664;5.074;2024-01-06T13:24:01;6.40;76.60
44111;DHT22;29774;52.664;5.074;2024-01-06T13:26:29;6.40;76.80
44111;DHT22;29774;52.664;5.074;2024-01-06T13:28:56;6.30;76.90
44111;DHT22;29774;52.664;5.074;2024-01-06T13:31:22;6.30;77.20
44111;DHT22;29774;52.664;5.074;2024-01-06T13:33:51;6.40;78.00
44111;DHT22;29774;52.664;5.074;2024-01-06T13:36:20;6.20;77.90
44111;DHT22;29774;52.664;5.074;2024-01-06T13:38:45;6.20;78.60
44111;DHT22;29774;52.664;5.074;2024-01-06T13:41:13;6.00;78.60
44111;DHT22;29774;52.664;5.074;2024-01-06T13:43:40;5.90;79.20
44111;DHT22;29774;52.664;5.074;2024-01-06T13:46:07;6.20;80.30
44111;DHT22;29774;52.664;5.074;2024-01-06T13:48:34;6.40;79.60
44111;DHT22;29774;52.664;5.074;2024-01-06T13:51:00;6.00;78.90
44111;DHT22;29774;52.664;5.074;2024-01-06T13:53:26;6.00;79.50
44111;DHT22;29774;52.664;5.074;2024-01-06T13:55:51;6.10;80.20
44111;DHT22;29774;52.664;5.074;2024-01-06T13:58:17;5.90;79.10
44111;DHT22;29774;52.664;5.074;2024-01-06T14:00:44;6.00;79.70
44111;DHT22;29774;52.664;5.074;2024-01-06T14:03:10;5.60;80.10
44111;DHT22;29774;52.664;5.074;2024-01-06T14:05:36;5.50;80.80
44111;DHT22;29774;52.664;5.074;2024-01-06T14:08:03;5.80;81.50
44111;DHT22;29774;52.664;5.074;2024-01-06T14:10:28;6.10;80.90
44111;DHT22;29774;52.664;5.074;2024-01-06T14:12:56;5.90;80.30
44111;DHT22;29774;52.664;5.074;2024-01-06T14:15:21;6.00;80.70
44111;DHT22;29774;52.664;5.074;2024-01-06T14:17:47;6.20;80.70
44111;DHT22;29774;52.664;5.074;2024-01-06T14:20:16;6.30;80.20
44111;DHT22;29774;52.664;5.074;2024-01-06T14:22:46;6.40;80.70
44111;DHT22;29774;52.664;5.074;2024-01-06T14:25:14;6.30;79.80
44111;DHT22;29774;52.664;5.074;2024-01-06T14:27:40;6.30;79.50
44111;DHT22;29774;52.664;5.074;2024-01-06T14:30:06;6.30;79.80
44111;DHT22;29774;52.664;5.074;2024-01-06T14:32:35;6.40;79.50
44111;DHT22;29774;52.664;5.074;2024-01-06T14:35:05;6.30;79.40
44111;DHT22;29774;52.664;5.074;2024-01-06T14:37:32;6.30;80.00
44111;DHT22;29774;52.664;5.074;2024-01-06T14:39:58;6.20;78.60
44111;DHT22;29774;52.664;5.074;2024-01-06T14:42:24;5.70;79.20
44111;DHT22;29774;52.664;5.074;2024-01-06T14:44:50;5.40;80.30
44111;DHT22;29774;52.664;5.074;2024-01-06T14:47:16;5.30;80.90
44111;DHT22;29774;52.664;5.074;2024-01-06T14:49:43;5.30;81.20
44111;DHT22;29774;52.664;5.074;2024-01-06T14:52:09;5.20;81.30
44111;DHT22;29774;52.664;5.074;2024-01-06T14:54:35;5.40;81.60
44111;DHT22;29774;52.664;5.074;2024-01-06T14:57:01;5.30;81.10
44111;DHT22;29774;52.664;5.074;2024-01-06T14:59:26;5.40;81.60
44111;DHT22;29774;52.664;5.074;2024-01-06T15:01:52;5.30;81.60
44111;DHT22;29774;52.664;5.074;2024-01-06T15:04:18;5.40;81.50
44111;DHT22;29774;52.664;5.074;2024-01-06T15:06:46;5.60;81.30
44111;DHT22;29774;52.664;5.074;2024-01-06T15:09:12;6.00;81.70
44111;DHT22;29774;52.664;5.074;2024-01-06T15:11:38;5.80;81.00
44111;DHT22;29774;52.664;5.074;2024-01-06T15:14:04;5.90;81.10
44111;DHT22;29774;52.664;5.074;2024-01-06T15:16:31;5.70;80.70
44111;DHT22;29774;52.664;5.074;2024-01-06T15:18:58;6.00;81.20
44111;DHT22;29774;52.664;5.074;2024-01-06T15:21:25;6.10;80.70
44111;DHT22;29774;52.664;5.074;2024-01-06T15:23:52;6.10;80.60
44111;DHT22;29774;52.664;5.074;2024-01-06T15:26:26;5.90;79.50
44111;DHT22;29774;52.664;5.074;2024-01-06T15:28:52;6.50;81.40
44111;DHT22;29774;52.664;5.074;2024-01-06T15:31:17;6.50;79.50
44111;DHT22;29774;52.664;5.074;2024-01-06T15:33:43;6.10;78.20
44111;DHT22;29774;52.664;5.074;2024-01-06T15:36:09;6.00;78.90
44111;DHT22;29774;52.664;5.074;2024-01-06T15:38:35;5.80;78.20
44111;DHT22;29774;52.664;5.074;2024-01-06T15:41:00;6.00;79.30